sensor_id;sensor_type;location;lat;lon;timestamp;P1;durP1;ratioP1;P2;durP2;ratioP2
4186;SDS011;2107;52.306;10.484;2022-12-07T00:01:22;0.00;;;0.00;;
4186;SDS011;2107;52.306;10.484;2022-12-07T00:03:51;0.00;;;0.00;;
4186;SDS011;2107;52.306;10.484;2022-12-07T00:06:20;0.00;;;0.00;;
4186;SDS011;2107;52.306;10.484;2022-12-07T00:08:48;0.00;;;0.00;;
4186;SDS011;2107;52.306;10.484;2022-12-07T00:11:16;0.00;;;0.00;;
4186;SDS011;2107;52.306;10.484;2022-12-07T00:13:44;0.00;;;0.00;;
4186;SDS011;2107;52.306;10.484;2022-12-07T00:16:12;0.00;;;0.00;;
4186;SDS011;2107;52.306;10.484;2022-12-07T00:18:41;0.00;;;0.00;;
4186;SDS011;2107;52.306;10.484;2022-12-07T00:21:09;0.00;;;0.00;;
4186;SDS011;2107;52.306;10.484;2022-12-07T00:23:38;0.00;;;0.00;;
4186;SDS011;2107;52.306;10.484;2022-12-07T00:26:07;0.00;;;0.00;;
4186;SDS011;2107;52.306;10.484;2022-12-07T00:28:35;0.00;;;0.00;;
4186;SDS011;2107;52.306;10.484;2022-12-07T00:31:03;0.00;;;0.00;;
4186;SDS011;2107;52.306;10.484;2022-12-07T00:33:31;0.00;;;0.00;;
4186;SDS011;2107;52.306;10.484;2022-12-07T00:35:59;0.00;;;0.00;;
4186;SDS011;2107;52.306;10.484;2022-12-07T00:38:27;0.00;;;0.00;;
4186;SDS011;2107;52.306;10.484;2022-12-07T00:40:56;0.00;;;0.00;;
4186;SDS011;2107;52.306;10.484;2022-12-07T00:43:25;0.00;;;0.00;;
4186;SDS011;2107;52.306;10.484;2022-12-07T00:45:52;0.00;;;0.00;;
4186;SDS011;2107;52.306;10.484;2022-12-07T00:48:20;0.00;;;0.00;;
4186;SDS011;2107;52.306;10.484;2022-12-07T00:50:47;0.10;;;0.10;;
4186;SDS011;2107;52.306;10.484;2022-12-07T00:53:15;0.10;;;0.10;;
4186;SDS011;2107;52.306;10.484;2022-12-07T00:55:43;0.10;;;0.10;;
4186;SDS011;2107;52.306;10.484;2022-12-07T00:58:10;0.10;;;0.10;;
4186;SDS011;2107;52.306;10.484;2022-12-07T01:00:39;0.10;;;0.10;;
4186;SDS011;2107;52.306;10.484;2022-12-07T01:03:08;0.10;;;0.10;;
4186;SDS011;2107;52.306;10.484;2022-12-07T01:05:36;0.00;;;0.00;;
4186;SDS011;2107;52.306;10.484;2022-12-07T01:08:03;0.10;;;0.10;;
4186;SDS011;2107;52.306;10.484;2022-12-07T01:10:31;0.10;;;0.10;;
4186;SDS011;2107;52.306;10.484;2022-12-07T01:12:58;0.10;;;0.10;;
4186;SDS011;2107;52.306;10.484;2022-12-07T01:15:25;0.10;;;0.10;;
4186;SDS011;2107;52.306;10.484;2022-12-07T01:17:54;0.10;;;0.10;;
4186;SDS011;2107;52.306;10.484;2022-12-07T01:20:21;0.10;;;0.10;;
4186;SDS011;2107;52.306;10.484;2022-12-07T01:22:48;0.10;;;0.10;;
4186;SDS011;2107;52.306;10.484;2022-12-07T01:25:15;0.00;;;0.00;;
4186;SDS011;2107;52.306;10.484;2022-12-07T01:27:41;0.00;;;0.00;;
4186;SDS011;2107;52.306;10.484;2022-12-07T01:30:09;0.10;;;0.10;;
4186;SDS011;2107;52.306;10.484;2022-12-07T01:32:37;0.10;;;0.10;;
4186;SDS011;2107;52.306;10.484;2022-12-07T01:35:06;0.00;;;0.00;;
4186;SDS011;2107;52.306;10.484;2022-12-07T01:37:34;0.10;;;0.10;;
4186;SDS011;2107;52.306;10.484;2022-12-07T01:40:02;0.10;;;0.10;;
4186;SDS011;2107;52.306;10.484;2022-12-07T01:42:30;0.10;;;0.10;;
4186;SDS011;2107;52.306;10.484;2022-12-07T01:48:10;0.10;;;0.10;;
4186;SDS011;2107;52.306;10.484;2022-12-07T01:50:41;0.10;;;0.10;;
4186;SDS011;2107;52.306;10.484;2022-12-07T01:53:11;0.10;;;0.10;;
4186;SDS011;2107;52.306;10.484;2022-12-07T01:55:40;0.10;;;0.10;;
4186;SDS011;2107;52.306;10.484;2022-12-07T01:58:10;0.10;;;0.10;;
4186;SDS011;2107;52.306;10.484;2022-12-07T02:00:38;0.10;;;0.10;;
4186;SDS011;2107;52.306;10.484;2022-12-07T02:03:07;0.10;;;0.10;;
4186;SDS011;2107;52.306;10.484;2022-12-07T02:05:37;0.10;;;0.10;;
4186;SDS011;2107;52.306;10.484;2022-12-07T02:08:08;0.10;;;0.10;;
4186;SDS011;2107;52.306;10.484;2022-12-07T02:10:36;0.10;;;0.10;;
4186;SDS011;2107;52.306;10.484;2022-12-07T02:13:04;0.10;;;0.10;;
4186;SDS011;2107;52.306;10.484;2022-12-07T02:15:38;0.03;;;0.03;;
4186;SDS011;2107;52.306;10.484;2022-12-07T02:18:18;0.10;;;0.10;;
4186;SDS011;2107;52.306;10.484;2022-12-07T02:20:51;0.10;;;0.10;;
4186;SDS011;2107;52.306;10.484;2022-12-07T02:23:31;0.10;;;0.10;;
4186;SDS011;2107;52.306;10.484;2022-12-07T02:26:24;0.10;;;0.10;;
4186;SDS011;2107;52.306;10.484;2022-12-07T02:29:19;0.10;;;0.10;;
4186;SDS011;2107;52.306;10.484;2022-12-07T02:31:55;0.10;;;0.10;;
4186;SDS011;2107;52.306;10.484;2022-12-07T02:34:29;0.10;;;0.10;;
4186;SDS011;2107;52.306;10.484;2022-12-07T02:37:03;0.00;;;0.00;;
4186;SDS011;2107;52.306;10.484;2022-12-07T02:39:37;0.10;;;0.10;;
4186;SDS011;2107;52.306;10.484;2022-12-07T02:42:12;0.00;;;0.00;;
4186;SDS011;2107;52.306;10.484;2022-12-07T02:44:44;0.00;;;0.00;;
4186;SDS011;2107;52.306;10.484;2022-12-07T02:47:13;0.00;;;0.00;;
4186;SDS011;2107;52.306;10.484;2022-12-07T02:49:43;0.00;;;0.00;;
4186;SDS011;2107;52.306;10.484;2022-12-07T02:52:10;0.00;;;0.00;;
4186;SDS011;2107;52.306;10.484;2022-12-07T02:54:37;0.00;;;0.00;;
4186;SDS011;2107;52.306;10.484;2022-12-07T02:57:06;0.10;;;0.10;;
4186;SDS011;2107;52.306;10.484;2022-12-07T02:59:48;0.00;;;0.00;;
4186;SDS011;2107;52.306;10.484;2022-12-07T03:02:26;0.00;;;0.00;;
4186;SDS011;2107;52.306;10.484;2022-12-07T03:05:01;0.00;;;0.00;;
4186;SDS011;2107;52.306;10.484;2022-12-07T03:07:39;0.00;;;0.00;;
4186;SDS011;2107;52.306;10.484;2022-12-07T03:10:14;0.10;;;0.10;;
4186;SDS011;2107;52.306;10.484;2022-12-07T03:12:49;0.00;;;0.00;;
4186;SDS011;2107;52.306;10.484;2022-12-07T03:15:27;0.03;;;0.03;;
4186;SDS011;2107;52.306;10.484;2022-12-07T03:17:58;0.00;;;0.00;;
4186;SDS011;2107;52.306;10.484;2022-12-07T03:20:28;0.00;;;0.00;;
4186;SDS011;2107;52.306;10.484;2022-12-07T03:22:56;0.00;;;0.00;;
4186;SDS011;2107;52.306;10.484;2022-12-07T03:25:23;0.00;;;0.00;;
4186;SDS011;2107;52.306;10.484;2022-12-07T03:27:52;0.00;;;0.00;;
4186;SDS011;2107;52.306;10.484;2022-12-07T03:30:22;0.10;;;0.10;;
4186;SDS011;2107;52.306;10.484;2022-12-07T03:32:53;0.00;;;0.00;;
4186;SDS011;2107;52.306;10.484;2022-12-07T03:35:25;0.00;;;0.00;;
4186;SDS011;2107;52.306;10.484;2022-12-07T03:37:55;0.00;;;0.00;;
4186;SDS011;2107;52.306;10.484;2022-12-07T03:40:26;0.00;;;0.00;;
4186;SDS011;2107;52.306;10.484;2022-12-07T03:42:56;0.10;;;0.10;;
4186;SDS011;2107;52.306;10.484;2022-12-07T03:45:28;0.10;;;0.10;;
4186;SDS011;2107;52.306;10.484;2022-12-07T03:48:05;0.10;;;0.10;;
4186;SDS011;2107;52.306;10.484;2022-12-07T03:50:38;0.10;;;0.10;;
4186;SDS011;2107;52.306;10.484;2022-12-07T03:53:09;0.10;;;0.10;;
4186;SDS011;2107;52.306;10.484;2022-12-07T03:55:42;0.10;;;0.10;;
4186;SDS011;2107;52.306;10.484;2022-12-07T03:58:11;0.10;;;0.10;;
4186;SDS011;2107;52.306;10.484;2022-12-07T04:00:40;0.10;;;0.10;;
4186;SDS011;2107;52.306;10.484;2022-12-07T04:03:09;0.10;;;0.10;;
4186;SDS011;2107;52.306;10.484;2022-12-07T04:05:36;0.10;;;0.10;;
4186;SDS011;2107;52.306;10.484;2022-12-07T04:08:04;0.10;;;0.10;;
4186;SDS011;2107;52.306;10.484;2022-12-07T04:10:31;0.10;;;0.10;;
4186;SDS011;2107;52.306;10.484;2022-12-07T04:12:58;0.10;;;0.10;;
4186;SDS011;2107;52.306;10.484;2022-12-07T04:15:25;0.10;;;0.10;;
4186;SDS011;2107;52.306;10.484;2022-12-07T04:17:52;0.10;;;0.10;;
4186;SDS011;2107;52.306;10.484;2022-12-07T04:20:21;0.10;;;0.10;;
4186;SDS011;2107;52.306;10.484;2022-12-07T04:22:48;0.10;;;0.10;;
4186;SDS011;2107;52.306;10.484;2022-12-07T04:25:15;0.10;;;0.10;;
4186;SDS011;2107;52.306;10.484;2022-12-07T04:27:42;0.10;;;0.10;;
4186;SDS011;2107;52.306;10.484;2022-12-07T04:30:09;0.10;;;0.10;;
4186;SDS011;2107;52.306;10.484;2022-12-07T04:32:36;0.20;;;0.20;;
4186;SDS011;2107;52.306;10.484;2022-12-07T04:35:03;0.13;;;0.13;;
4186;SDS011;2107;52.306;10.484;2022-12-07T04:37:32;0.20;;;0.20;;
4186;SDS011;2107;52.306;10.484;2022-12-07T04:39:59;0.10;;;0.10;;
4186;SDS011;2107;52.306;10.484;2022-12-07T04:42:26;0.20;;;0.20;;
4186;SDS011;2107;52.306;10.484;2022-12-07T04:44:53;0.30;;;0.30;;
4186;SDS011;2107;52.306;10.484;2022-12-07T04:47:20;0.30;;;0.30;;
4186;SDS011;2107;52.306;10.484;2022-12-07T04:49:47;0.20;;;0.20;;
4186;SDS011;2107;52.306;10.484;2022-12-07T04:52:13;0.20;;;0.20;;
4186;SDS011;2107;52.306;10.484;2022-12-07T04:54:42;0.20;;;0.20;;
4186;SDS011;2107;52.306;10.484;2022-12-07T04:57:08;0.20;;;0.20;;
4186;SDS011;2107;52.306;10.484;2022-12-07T04:59:35;0.20;;;0.20;;
4186;SDS011;2107;52.306;10.484;2022-12-07T05:02:02;0.20;;;0.20;;
4186;SDS011;2107;52.306;10.484;2022-12-07T05:04:29;0.20;;;0.20;;
4186;SDS011;2107;52.306;10.484;2022-12-07T05:06:56;0.20;;;0.20;;
4186;SDS011;2107;52.306;10.484;2022-12-07T05:09:23;0.10;;;0.10;;
4186;SDS011;2107;52.306;10.484;2022-12-07T05:11:51;0.20;;;0.20;;
4186;SDS011;2107;52.306;10.484;2022-12-07T05:14:18;0.20;;;0.20;;
4186;SDS011;2107;52.306;10.484;2022-12-07T05:16:47;0.20;;;0.20;;
4186;SDS011;2107;52.306;10.484;2022-12-07T05:19:15;0.20;;;0.20;;
4186;SDS011;2107;52.306;10.484;2022-12-07T05:21:42;0.30;;;0.30;;
4186;SDS011;2107;52.306;10.484;2022-12-07T05:24:10;0.20;;;0.20;;
4186;SDS011;2107;52.306;10.484;2022-12-07T05:26:38;0.10;;;0.10;;
4186;SDS011;2107;52.306;10.484;2022-12-07T05:29:07;0.20;;;0.20;;
4186;SDS011;2107;52.306;10.484;2022-12-07T05:31:36;0.10;;;0.10;;
4186;SDS011;2107;52.306;10.484;2022-12-07T05:34:03;0.20;;;0.20;;
4186;SDS011;2107;52.306;10.484;2022-12-07T05:36:30;0.20;;;0.20;;
4186;SDS011;2107;52.306;10.484;2022-12-07T05:38:57;0.20;;;0.20;;
4186;SDS011;2107;52.306;10.484;2022-12-07T05:41:24;0.13;;;0.13;;
4186;SDS011;2107;52.306;10.484;2022-12-07T05:44:10;0.10;;;0.10;;
4186;SDS011;2107;52.306;10.484;2022-12-07T05:46:37;0.10;;;0.10;;
4186;SDS011;2107;52.306;10.484;2022-12-07T05:49:04;0.10;;;0.10;;
4186;SDS011;2107;52.306;10.484;2022-12-07T05:51:31;0.10;;;0.10;;
4186;SDS011;2107;52.306;10.484;2022-12-07T05:53:58;0.10;;;0.10;;
4186;SDS011;2107;52.306;10.484;2022-12-07T05:56:25;0.20;;;0.20;;
4186;SDS011;2107;52.306;10.484;2022-12-07T05:58:52;0.10;;;0.10;;
4186;SDS011;2107;52.306;10.484;2022-12-07T06:01:38;0.10;;;0.10;;
4186;SDS011;2107;52.306;10.484;2022-12-07T06:04:05;0.17;;;0.17;;
4186;SDS011;2107;52.306;10.484;2022-12-07T06:06:32;0.10;;;0.10;;
4186;SDS011;2107;52.306;10.484;2022-12-07T06:08:59;0.10;;;0.10;;
4186;SDS011;2107;52.306;10.484;2022-12-07T06:11:25;0.20;;;0.20;;
4186;SDS011;2107;52.306;10.484;2022-12-07T06:14:10;0.20;;;0.20;;
4186;SDS011;2107;52.306;10.484;2022-12-07T06:16:38;0.20;;;0.20;;
4186;SDS011;2107;52.306;10.484;2022-12-07T06:19:05;0.20;;;0.20;;
4186;SDS011;2107;52.306;10.484;2022-12-07T06:21:32;0.20;;;0.20;;
4186;SDS011;2107;52.306;10.484;2022-12-07T06:23:59;0.20;;;0.20;;
4186;SDS011;2107;52.306;10.484;2022-12-07T06:26:26;0.30;;;0.30;;
4186;SDS011;2107;52.306;10.484;2022-12-07T06:28:52;0.20;;;0.20;;
4186;SDS011;2107;52.306;10.484;2022-12-07T06:31:19;0.20;;;0.20;;
4186;SDS011;2107;52.306;10.484;2022-12-07T06:33:48;0.20;;;0.20;;
4186;SDS011;2107;52.306;10.484;2022-12-07T06:36:15;0.10;;;0.10;;
4186;SDS011;2107;52.306;10.484;2022-12-07T06:38:42;0.10;;;0.10;;
4186;SDS011;2107;52.306;10.484;2022-12-07T06:41:08;0.20;;;0.20;;
4186;SDS011;2107;52.306;10.484;2022-12-07T06:43:35;0.20;;;0.20;;
4186;SDS011;2107;52.306;10.484;2022-12-07T06:46:03;0.10;;;0.10;;
4186;SDS011;2107;52.306;10.484;2022-12-07T06:48:30;0.20;;;0.20;;
4186;SDS011;2107;52.306;10.484;2022-12-07T06:50:58;0.10;;;0.10;;
4186;SDS011;2107;52.306;10.484;2022-12-07T06:53:25;0.10;;;0.10;;
4186;SDS011;2107;52.306;10.484;2022-12-07T06:55:52;0.10;;;0.10;;
4186;SDS011;2107;52.306;10.484;2022-12-07T06:58:19;0.10;;;0.10;;
4186;SDS011;2107;52.306;10.484;2022-12-07T07:00:47;0.10;;;0.10;;
4186;SDS011;2107;52.306;10.484;2022-12-07T07:03:15;0.10;;;0.10;;
4186;SDS011;2107;52.306;10.484;2022-12-07T07:05:42;0.10;;;0.10;;
4186;SDS011;2107;52.306;10.484;2022-12-07T07:08:11;0.10;;;0.10;;
4186;SDS011;2107;52.306;10.484;2022-12-07T07:10:38;0.10;;;0.10;;
4186;SDS011;2107;52.306;10.484;2022-12-07T07:13:05;0.10;;;0.10;;
4186;SDS011;2107;52.306;10.484;2022-12-07T07:15:32;0.10;;;0.10;;
4186;SDS011;2107;52.306;10.484;2022-12-07T07:17:59;0.10;;;0.10;;
4186;SDS011;2107;52.306;10.484;2022-12-07T07:20:28;0.10;;;0.10;;
4186;SDS011;2107;52.306;10.484;2022-12-07T07:22:55;0.10;;;0.10;;
4186;SDS011;2107;52.306;10.484;2022-12-07T07:25:23;0.10;;;0.10;;
4186;SDS011;2107;52.306;10.484;2022-12-07T07:27:50;0.10;;;0.10;;
4186;SDS011;2107;52.306;10.484;2022-12-07T07:30:17;0.10;;;0.10;;
4186;SDS011;2107;52.306;10.484;2022-12-07T07:32:44;0.20;;;0.20;;
4186;SDS011;2107;52.306;10.484;2022-12-07T07:35:10;0.10;;;0.10;;
4186;SDS011;2107;52.306;10.484;2022-12-07T07:37:39;0.10;;;0.10;;
4186;SDS011;2107;52.306;10.484;2022-12-07T07:40:06;0.00;;;0.00;;
4186;SDS011;2107;52.306;10.484;2022-12-07T07:42:35;0.10;;;0.10;;
4186;SDS011;2107;52.306;10.484;2022-12-07T07:45:02;0.10;;;0.10;;
4186;SDS011;2107;52.306;10.484;2022-12-07T07:47:29;0.00;;;0.00;;
4186;SDS011;2107;52.306;10.484;2022-12-07T07:49:56;0.10;;;0.10;;
4186;SDS011;2107;52.306;10.484;2022-12-07T07:52:23;0.10;;;0.10;;
4186;SDS011;2107;52.306;10.484;2022-12-07T07:54:50;0.10;;;0.10;;
4186;SDS011;2107;52.306;10.484;2022-12-07T07:57:17;0.10;;;0.10;;
4186;SDS011;2107;52.306;10.484;2022-12-07T07:59:45;0.10;;;0.10;;
4186;SDS011;2107;52.306;10.484;2022-12-07T08:02:13;0.10;;;0.10;;
4186;SDS011;2107;52.306;10.484;2022-12-07T08:04:41;0.10;;;0.10;;
4186;SDS011;2107;52.306;10.484;2022-12-07T08:07:09;0.10;;;0.10;;
4186;SDS011;2107;52.306;10.484;2022-12-07T08:09:38;0.10;;;0.10;;
4186;SDS011;2107;52.306;10.484;2022-12-07T08:12:05;0.10;;;0.10;;
4186;SDS011;2107;52.306;10.484;2022-12-07T08:14:33;0.10;;;0.10;;
4186;SDS011;2107;52.306;10.484;2022-12-07T08:17:02;0.10;;;0.10;;
4186;SDS011;2107;52.306;10.484;2022-12-07T08:19:28;0.10;;;0.10;;
4186;SDS011;2107;52.306;10.484;2022-12-07T08:21:55;0.10;;;0.10;;
4186;SDS011;2107;52.306;10.484;2022-12-07T08:24:22;0.10;;;0.10;;
4186;SDS011;2107;52.306;10.484;2022-12-07T08:26:50;0.10;;;0.10;;
4186;SDS011;2107;52.306;10.484;2022-12-07T08:29:17;0.10;;;0.10;;
4186;SDS011;2107;52.306;10.484;2022-12-07T08:31:44;0.10;;;0.10;;
4186;SDS011;2107;52.306;10.484;2022-12-07T08:34:13;0.20;;;0.20;;
4186;SDS011;2107;52.306;10.484;2022-12-07T08:36:40;0.10;;;0.10;;
4186;SDS011;2107;52.306;10.484;2022-12-07T08:39:07;0.20;;;0.20;;
4186;SDS011;2107;52.306;10.484;2022-12-07T08:41:35;0.20;;;0.20;;
4186;SDS011;2107;52.306;10.484;2022-12-07T08:44:02;0.10;;;0.10;;
4186;SDS011;2107;52.306;10.484;2022-12-07T08:46:31;0.13;;;0.13;;
4186;SDS011;2107;52.306;10.484;2022-12-07T08:49:03;0.20;;;0.20;;
4186;SDS011;2107;52.306;10.484;2022-12-07T08:51:34;0.20;;;0.20;;
4186;SDS011;2107;52.306;10.484;2022-12-07T08:54:02;0.10;;;0.10;;
4186;SDS011;2107;52.306;10.484;2022-12-07T08:56:31;0.20;;;0.20;;
4186;SDS011;2107;52.306;10.484;2022-12-07T08:58:58;0.20;;;0.20;;
4186;SDS011;2107;52.306;10.484;2022-12-07T09:01:26;0.37;;;0.37;;
4186;SDS011;2107;52.306;10.484;2022-12-07T09:03:54;0.20;;;0.20;;
4186;SDS011;2107;52.306;10.484;2022-12-07T09:06:20;0.20;;;0.20;;
4186;SDS011;2107;52.306;10.484;2022-12-07T09:08:50;0.30;;;0.30;;
4186;SDS011;2107;52.306;10.484;2022-12-07T09:11:20;0.40;;;0.40;;
4186;SDS011;2107;52.306;10.484;2022-12-07T09:13:47;0.50;;;0.50;;
4186;SDS011;2107;52.306;10.484;2022-12-07T09:16:14;0.40;;;0.40;;
4186;SDS011;2107;52.306;10.484;2022-12-07T09:18:41;0.60;;;0.60;;
4186;SDS011;2107;52.306;10.484;2022-12-07T09:21:08;0.57;;;0.57;;
4186;SDS011;2107;52.306;10.484;2022-12-07T09:23:35;0.70;;;0.70;;
4186;SDS011;2107;52.306;10.484;2022-12-07T09:26:03;0.50;;;0.50;;
4186;SDS011;2107;52.306;10.484;2022-12-07T09:28:31;0.50;;;0.50;;
4186;SDS011;2107;52.306;10.484;2022-12-07T09:30:58;0.70;;;0.70;;
4186;SDS011;2107;52.306;10.484;2022-12-07T09:33:25;0.70;;;0.70;;
4186;SDS011;2107;52.306;10.484;2022-12-07T09:35:52;0.60;;;0.60;;
4186;SDS011;2107;52.306;10.484;2022-12-07T09:38:19;0.70;;;0.70;;
4186;SDS011;2107;52.306;10.484;2022-12-07T09:40:46;0.77;;;0.77;;
4186;SDS011;2107;52.306;10.484;2022-12-07T09:43:15;0.90;;;0.90;;
4186;SDS011;2107;52.306;10.484;2022-12-07T09:45:44;0.90;;;0.90;;
4186;SDS011;2107;52.306;10.484;2022-12-07T09:48:14;0.90;;;0.90;;
4186;SDS011;2107;52.306;10.484;2022-12-07T09:50:45;0.80;;;0.80;;
4186;SDS011;2107;52.306;10.484;2022-12-07T09:53:13;1.00;;;1.00;;
4186;SDS011;2107;52.306;10.484;2022-12-07T09:55:43;1.63;;;1.63;;
4186;SDS011;2107;52.306;10.484;2022-12-07T09:58:11;1.80;;;1.80;;
4186;SDS011;2107;52.306;10.484;2022-12-07T10:00:45;1.57;;;1.57;;
4186;SDS011;2107;52.306;10.484;2022-12-07T10:03:12;1.40;;;1.40;;
4186;SDS011;2107;52.306;10.484;2022-12-07T10:05:41;1.50;;;1.50;;
4186;SDS011;2107;52.306;10.484;2022-12-07T10:08:12;1.60;;;1.60;;
4186;SDS011;2107;52.306;10.484;2022-12-07T10:10:40;1.90;;;1.90;;
4186;SDS011;2107;52.306;10.484;2022-12-07T10:13:08;1.40;;;1.40;;
4186;SDS011;2107;52.306;10.484;2022-12-07T10:15:46;1.90;;;1.90;;
4186;SDS011;2107;52.306;10.484;2022-12-07T10:18:28;1.60;;;1.60;;
4186;SDS011;2107;52.306;10.484;2022-12-07T10:21:04;1.70;;;1.70;;
4186;SDS011;2107;52.306;10.484;2022-12-07T10:23:37;1.73;;;1.73;;
4186;SDS011;2107;52.306;10.484;2022-12-07T10:28:58;1.77;;;1.77;;
4186;SDS011;2107;52.306;10.484;2022-12-07T10:31:27;2.40;;;2.40;;
4186;SDS011;2107;52.306;10.484;2022-12-07T10:33:55;3.00;;;3.00;;
4186;SDS011;2107;52.306;10.484;2022-12-07T10:36:24;2.70;;;2.70;;
4186;SDS011;2107;52.306;10.484;2022-12-07T10:38:53;2.70;;;2.70;;
4186;SDS011;2107;52.306;10.484;2022-12-07T10:41:26;2.90;;;2.90;;
4186;SDS011;2107;52.306;10.484;2022-12-07T10:43:53;3.10;;;3.10;;
4186;SDS011;2107;52.306;10.484;2022-12-07T10:52:29;2.90;;;2.90;;
4186;SDS011;2107;52.306;10.484;2022-12-07T10:55:20;3.00;;;3.00;;
4186;SDS011;2107;52.306;10.484;2022-12-07T10:57:59;2.70;;;2.70;;
4186;SDS011;2107;52.306;10.484;2022-12-07T11:00:43;3.10;;;3.10;;
4186;SDS011;2107;52.306;10.484;2022-12-07T11:03:30;3.67;;;3.67;;
4186;SDS011;2107;52.306;10.484;2022-12-07T11:06:17;3.80;;;3.80;;
4186;SDS011;2107;52.306;10.484;2022-12-07T11:08:57;4.23;;;4.23;;
4186;SDS011;2107;52.306;10.484;2022-12-07T11:11:42;3.93;;;3.93;;
4186;SDS011;2107;52.306;10.484;2022-12-07T11:14:19;4.10;;;4.10;;
4186;SDS011;2107;52.306;10.484;2022-12-07T11:16:52;4.20;;;4.20;;
4186;SDS011;2107;52.306;10.484;2022-12-07T11:19:34;3.90;;;3.90;;
4186;SDS011;2107;52.306;10.484;2022-12-07T11:22:17;4.20;;;4.20;;
4186;SDS011;2107;52.306;10.484;2022-12-07T11:24:49;3.90;;;3.90;;
4186;SDS011;2107;52.306;10.484;2022-12-07T11:27:25;4.20;;;4.20;;
4186;SDS011;2107;52.306;10.484;2022-12-07T11:32:51;4.00;;;4.00;;
4186;SDS011;2107;52.306;10.484;2022-12-07T11:35:29;4.63;;;4.63;;
4186;SDS011;2107;52.306;10.484;2022-12-07T11:38:07;4.50;;;4.50;;
4186;SDS011;2107;52.306;10.484;2022-12-07T11:40:37;4.00;;;4.00;;
4186;SDS011;2107;52.306;10.484;2022-12-07T11:43:09;4.10;;;4.10;;
4186;SDS011;2107;52.306;10.484;2022-12-07T11:45:44;4.70;;;4.70;;
4186;SDS011;2107;52.306;10.484;2022-12-07T11:48:15;4.50;;;4.50;;
4186;SDS011;2107;52.306;10.484;2022-12-07T11:50:50;4.30;;;4.30;;
4186;SDS011;2107;52.306;10.484;2022-12-07T11:53:20;4.30;;;4.30;;
4186;SDS011;2107;52.306;10.484;2022-12-07T11:55:52;3.80;;;3.80;;
4186;SDS011;2107;52.306;10.484;2022-12-07T11:58:33;3.80;;;3.80;;
4186;SDS011;2107;52.306;10.484;2022-12-07T12:01:11;3.20;;;3.20;;
4186;SDS011;2107;52.306;10.484;2022-12-07T12:03:46;3.17;;;3.17;;
4186;SDS011;2107;52.306;10.484;2022-12-07T12:06:17;3.00;;;3.00;;
4186;SDS011;2107;52.306;10.484;2022-12-07T12:08:45;3.50;;;3.50;;
4186;SDS011;2107;52.306;10.484;2022-12-07T12:11:20;3.00;;;3.00;;
4186;SDS011;2107;52.306;10.484;2022-12-07T12:14:11;3.30;;;3.30;;
4186;SDS011;2107;52.306;10.484;2022-12-07T12:17:07;3.00;;;3.00;;
4186;SDS011;2107;52.306;10.484;2022-12-07T12:19:55;2.50;;;2.50;;
4186;SDS011;2107;52.306;10.484;2022-12-07T12:22:32;2.80;;;2.80;;
4186;SDS011;2107;52.306;10.484;2022-12-07T12:25:02;2.20;;;2.20;;
4186;SDS011;2107;52.306;10.484;2022-12-07T12:27:33;2.73;;;2.73;;
4186;SDS011;2107;52.306;10.484;2022-12-07T12:30:04;2.30;;;2.30;;
4186;SDS011;2107;52.306;10.484;2022-12-07T12:32:35;2.60;;;2.60;;
4186;SDS011;2107;52.306;10.484;2022-12-07T12:35:20;2.50;;;2.50;;
4186;SDS011;2107;52.306;10.484;2022-12-07T12:37:54;2.40;;;2.40;;
4186;SDS011;2107;52.306;10.484;2022-12-07T12:40:42;2.50;;;2.50;;
4186;SDS011;2107;52.306;10.484;2022-12-07T12:46:36;2.20;;;2.20;;
4186;SDS011;2107;52.306;10.484;2022-12-07T12:55:16;1.70;;;1.70;;
4186;SDS011;2107;52.306;10.484;2022-12-07T12:57:46;1.50;;;1.50;;
4186;SDS011;2107;52.306;10.484;2022-12-07T13:00:34;1.60;;;1.60;;
4186;SDS011;2107;52.306;10.484;2022-12-07T13:03:01;1.40;;;1.40;;
4186;SDS011;2107;52.306;10.484;2022-12-07T13:05:28;1.70;;;1.70;;
4186;SDS011;2107;52.306;10.484;2022-12-07T13:07:57;1.73;;;1.73;;
4186;SDS011;2107;52.306;10.484;2022-12-07T13:13:29;1.90;;;1.90;;
4186;SDS011;2107;52.306;10.484;2022-12-07T13:25:22;1.93;;;1.93;;
4186;SDS011;2107;52.306;10.484;2022-12-07T13:28:01;1.80;;;1.80;;
4186;SDS011;2107;52.306;10.484;2022-12-07T13:30:35;1.70;;;1.70;;
4186;SDS011;2107;52.306;10.484;2022-12-07T13:33:10;1.60;;;1.60;;
4186;SDS011;2107;52.306;10.484;2022-12-07T13:35:37;1.90;;;1.90;;
4186;SDS011;2107;52.306;10.484;2022-12-07T13:38:05;2.07;;;2.07;;
4186;SDS011;2107;52.306;10.484;2022-12-07T13:40:42;1.70;;;1.70;;
4186;SDS011;2107;52.306;10.484;2022-12-07T13:43:31;1.70;;;1.70;;
4186;SDS011;2107;52.306;10.484;2022-12-07T13:46:08;1.40;;;1.40;;
4186;SDS011;2107;52.306;10.484;2022-12-07T13:48:43;1.60;;;1.60;;
4186;SDS011;2107;52.306;10.484;2022-12-07T13:51:16;1.40;;;1.40;;
4186;SDS011;2107;52.306;10.484;2022-12-07T13:53:49;1.30;;;1.30;;
4186;SDS011;2107;52.306;10.484;2022-12-07T13:56:18;1.10;;;1.10;;
4186;SDS011;2107;52.306;10.484;2022-12-07T13:58:48;1.10;;;1.10;;
4186;SDS011;2107;52.306;10.484;2022-12-07T14:01:15;1.00;;;1.00;;
4186;SDS011;2107;52.306;10.484;2022-12-07T14:03:43;0.80;;;0.80;;
4186;SDS011;2107;52.306;10.484;2022-12-07T14:06:18;1.00;;;1.00;;
4186;SDS011;2107;52.306;10.484;2022-12-07T14:08:50;0.90;;;0.90;;
4186;SDS011;2107;52.306;10.484;2022-12-07T14:11:17;0.70;;;0.70;;
4186;SDS011;2107;52.306;10.484;2022-12-07T14:13:57;0.70;;;0.70;;
4186;SDS011;2107;52.306;10.484;2022-12-07T14:16:27;0.93;;;0.93;;
4186;SDS011;2107;52.306;10.484;2022-12-07T14:18:56;1.00;;;1.00;;
4186;SDS011;2107;52.306;10.484;2022-12-07T14:21:24;0.80;;;0.80;;
4186;SDS011;2107;52.306;10.484;2022-12-07T14:24:09;0.40;;;0.40;;
4186;SDS011;2107;52.306;10.484;2022-12-07T14:26:44;0.40;;;0.40;;
4186;SDS011;2107;52.306;10.484;2022-12-07T14:29:30;0.67;;;0.67;;
4186;SDS011;2107;52.306;10.484;2022-12-07T14:32:01;0.70;;;0.70;;
4186;SDS011;2107;52.306;10.484;2022-12-07T14:34:57;0.60;;;0.60;;
4186;SDS011;2107;52.306;10.484;2022-12-07T14:37:26;0.80;;;0.80;;
4186;SDS011;2107;52.306;10.484;2022-12-07T14:39:53;0.70;;;0.70;;
4186;SDS011;2107;52.306;10.484;2022-12-07T14:42:20;0.80;;;0.80;;
4186;SDS011;2107;52.306;10.484;2022-12-07T14:44:51;0.80;;;0.80;;
4186;SDS011;2107;52.306;10.484;2022-12-07T14:47:18;0.70;;;0.70;;
4186;SDS011;2107;52.306;10.484;2022-12-07T14:49:45;0.60;;;0.60;;
4186;SDS011;2107;52.306;10.484;2022-12-07T14:52:13;0.50;;;0.50;;
4186;SDS011;2107;52.306;10.484;2022-12-07T14:54:43;0.60;;;0.60;;
4186;SDS011;2107;52.306;10.484;2022-12-07T14:57:10;1.10;;;1.10;;
4186;SDS011;2107;52.306;10.484;2022-12-07T14:59:37;1.10;;;1.10;;
4186;SDS011;2107;52.306;10.484;2022-12-07T15:02:06;1.10;;;1.10;;
4186;SDS011;2107;52.306;10.484;2022-12-07T15:04:33;1.40;;;1.40;;
4186;SDS011;2107;52.306;10.484;2022-12-07T15:07:00;1.30;;;1.30;;
4186;SDS011;2107;52.306;10.484;2022-12-07T15:09:29;1.40;;;1.40;;
4186;SDS011;2107;52.306;10.484;2022-12-07T15:11:56;1.10;;;1.10;;
4186;SDS011;2107;52.306;10.484;2022-12-07T15:14:23;1.00;;;1.00;;
4186;SDS011;2107;52.306;10.484;2022-12-07T15:16:50;1.00;;;1.00;;
4186;SDS011;2107;52.306;10.484;2022-12-07T15:19:19;1.27;;;1.27;;
4186;SDS011;2107;52.306;10.484;2022-12-07T15:21:47;1.40;;;1.40;;
4186;SDS011;2107;52.306;10.484;2022-12-07T15:24:14;1.10;;;1.10;;
4186;SDS011;2107;52.306;10.484;2022-12-07T15:26:41;0.70;;;0.70;;
4186;SDS011;2107;52.306;10.484;2022-12-07T15:29:09;0.60;;;0.60;;
4186;SDS011;2107;52.306;10.484;2022-12-07T15:31:37;0.80;;;0.80;;
4186;SDS011;2107;52.306;10.484;2022-12-07T15:34:04;0.60;;;0.60;;
4186;SDS011;2107;52.306;10.484;2022-12-07T15:36:32;0.80;;;0.80;;
4186;SDS011;2107;52.306;10.484;2022-12-07T15:39:00;0.80;;;0.80;;
4186;SDS011;2107;52.306;10.484;2022-12-07T15:41:27;0.80;;;0.80;;
4186;SDS011;2107;52.306;10.484;2022-12-07T15:43:54;0.60;;;0.60;;
4186;SDS011;2107;52.306;10.484;2022-12-07T15:46:39;0.70;;;0.70;;
4186;SDS011;2107;52.306;10.484;2022-12-07T15:49:09;1.00;;;1.00;;
4186;SDS011;2107;52.306;10.484;2022-12-07T15:51:39;1.17;;;1.17;;
4186;SDS011;2107;52.306;10.484;2022-12-07T15:54:06;3.20;;;3.20;;
4186;SDS011;2107;52.306;10.484;2022-12-07T15:56:34;4.07;;;4.07;;